Wetterstation Vordersexau
Wetterdaten: Woche 23.09.13 - 29.09.13 (KW39)
Datum Zeit Temp. A. Feuchte A. Luftdruck Regen Wind Richtung Taupunkt Windchill Windben
23.09.2013 00:00 10,2 C 80 % 1024,8 hPa 0,0 l/m 1,3 km/h NO 6,9 C 10,2 C 0,7 km/h
23.09.2013 01:00 9,5 C 79 % 1024,5 hPa 0,0 l/m 0,0 km/h NO 6,0 C 9,5 C 0,0 km/h
23.09.2013 02:00 8,3 C 79 % 1024,6 hPa 0,0 l/m 0,0 km/h NO 4,9 C 8,3 C 0,0 km/h
23.09.2013 03:00 6,9 C 80 % 1024,1 hPa 0,0 l/m 0,0 km/h NO 3,7 C 6,9 C 0,0 km/h
23.09.2013 04:00 7,5 C 78 % 1024,0 hPa 0,0 l/m 0,0 km/h NO 3,9 C 7,5 C 0,0 km/h
23.09.2013 05:00 7,3 C 77 % 1023,7 hPa 0,0 l/m 0,0 km/h N-NO 3,5 C 7,3 C 0,0 km/h
23.09.2013 06:00 6,9 C 75 % 1023,8 hPa 0,0 l/m 0,0 km/h N-NO 2,8 C 6,9 C 0,0 km/h
23.09.2013 07:00 6,9 C 75 % 1023,6 hPa 0,0 l/m 0,0 km/h N-NO 2,8 C 6,9 C 0,0 km/h
23.09.2013 08:00 7,8 C 73 % 1023,5 hPa 0,0 l/m 0,0 km/h NW 3,3 C 7,8 C 0,0 km/h
23.09.2013 09:00 13,6 C 73 % 1023,6 hPa 0,0 l/m 1,3 km/h W 8,9 C 13,6 C 0,7 km/h
23.09.2013 10:00 17,7 C 77 % 1023,5 hPa 0,0 l/m 0,0 km/h W-SW 13,6 C 17,7 C 0,0 km/h
23.09.2013 11:00 22,9 C 61 % 1023,1 hPa 0,0 l/m 0,6 km/h NO 15,0 C 22,9 C 0,4 km/h
23.09.2013 12:00 24,1 C 56 % 1022,3 hPa 0,0 l/m 0,0 km/h W 14,8 C 24,1 C 0,0 km/h
23.09.2013 13:00 23,8 C 58 % 1021,9 hPa 0,0 l/m 0,0 km/h NW 15,0 C 23,8 C 0,0 km/h
23.09.2013 14:00 24,8 C 58 % 1021,0 hPa 0,0 l/m 0,0 km/h W-NW 16,0 C 24,8 C 0,0 km/h
23.09.2013 15:00 27,2 C 50 % 1020,2 hPa 0,0 l/m 1,3 km/h NW 15,9 C 27,2 C 0,7 km/h
23.09.2013 16:00 28,6 C 45 % 1019,6 hPa 0,0 l/m 0,0 km/h N-NO 15,5 C 28,6 C 0,0 km/h
23.09.2013 17:00 29,8 C 43 % 1018,7 hPa 0,0 l/m 0,0 km/h N-NO 15,8 C 29,8 C 0,0 km/h
23.09.2013 18:00 27,0 C 47 % 1018,4 hPa 0,0 l/m 4,5 km/h NO 14,7 C 27,0 C 2,5 km/h
23.09.2013 19:00 20,1 C 61 % 1018,8 hPa 0,0 l/m 0,0 km/h O-SO 12,3 C 20,1 C 0,0 km/h
23.09.2013 20:00 13,8 C 78 % 1019,0 hPa 0,0 l/m 0,0 km/h O-SO 10,0 C 13,8 C 0,0 km/h
23.09.2013 21:00 12,3 C 82 % 1019,2 hPa 0,0 l/m 0,0 km/h SO 9,3 C 12,3 C 0,0 km/h
23.09.2013 22:00 11,5 C 82 % 1019,1 hPa 0,0 l/m 0,0 km/h SO 8,5 C 11,5 C 0,0 km/h
23.09.2013 23:00 10,4 C 82 % 1019,2 hPa 0,0 l/m 0,0 km/h O-SO 7,5 C 10,4 C 0,0 km/h
24.09.2013 00:00 9,8 C 80 % 1018,6 hPa 0,0 l/m 0,0 km/h O-SO 6,5 C 9,8 C 0,0 km/h
24.09.2013 01:00 8,3 C 81 % 1018,0 hPa 0,0 l/m 0,0 km/h O 5,2 C 8,3 C 0,0 km/h
24.09.2013 02:00 8,7 C 79 % 1018,0 hPa 0,0 l/m 0,0 km/h O-SO 5,3 C 8,7 C 0,0 km/h
24.09.2013 03:00 8,0 C 78 % 1017,6 hPa 0,0 l/m 0,0 km/h O-SO 4,4 C 8,0 C 0,0 km/h
24.09.2013 04:00 9,8 C 75 % 1017,1 hPa 0,0 l/m 0,0 km/h O 5,6 C 9,8 C 0,0 km/h
24.09.2013 05:00 9,1 C 75 % 1016,6 hPa 0,0 l/m 0,0 km/h NO 4,9 C 9,1 C 0,0 km/h
24.09.2013 06:00 7,3 C 75 % 1016,1 hPa 0,0 l/m 0,0 km/h NO 3,2 C 7,3 C 0,0 km/h
24.09.2013 07:00 6,4 C 77 % 1016,2 hPa 0,0 l/m 0,0 km/h NO 2,7 C 6,4 C 0,0 km/h
24.09.2013 08:00 6,9 C 75 % 1016,0 hPa 0,0 l/m 0,0 km/h W-NW 2,8 C 6,9 C 0,0 km/h
24.09.2013 09:00 10,6 C 67 % 1015,9 hPa 0,0 l/m 2,6 km/h N-NW 4,7 C 10,6 C 1,4 km/h
24.09.2013 10:00 12,1 C 81 % 1015,8 hPa 0,0 l/m 0,0 km/h NW 8,9 C 12,1 C 0,0 km/h
24.09.2013 11:00 20,9 C 69 % 1015,3 hPa 0,0 l/m 5,2 km/h W 15,0 C 20,9 C 2,9 km/h
24.09.2013 12:00 22,6 C 62 % 1014,4 hPa 0,0 l/m 2,6 km/h N-NO 14,9 C 22,6 C 1,4 km/h
24.09.2013 13:00 22,9 C 61 % 1014,3 hPa 0,0 l/m 0,0 km/h W 15,0 C 22,9 C 0,0 km/h
24.09.2013 14:00 23,6 C 59 % 1013,7 hPa 0,0 l/m 1,9 km/h W 15,1 C 23,6 C 1,1 km/h
24.09.2013 15:00 27,0 C 52 % 1013,3 hPa 0,0 l/m 0,0 km/h W 16,3 C 27,0 C 0,0 km/h
24.09.2013 16:00 30,8 C 42 % 1012,8 hPa 0,0 l/m 4,5 km/h N-NW 16,4 C 30,8 C 2,5 km/h
24.09.2013 17:00 31,1 C 40 % 1012,2 hPa 0,0 l/m 0,0 km/h W 15,9 C 31,1 C 0,0 km/h
24.09.2013 18:00 29,3 C 42 % 1011,9 hPa 0,0 l/m 0,0 km/h NO 15,0 C 29,3 C 0,0 km/h
24.09.2013 19:00 19,8 C 62 % 1011,5 hPa 0,0 l/m 0,0 km/h S-SO 12,3 C 19,8 C 0,0 km/h
24.09.2013 20:00 14,1 C 79 % 1011,6 hPa 0,0 l/m 0,0 km/h O-NO 10,5 C 14,1 C 0,0 km/h
24.09.2013 21:00 12,6 C 82 % 1012,1 hPa 0,0 l/m 0,0 km/h S-SO 9,6 C 12,6 C 0,0 km/h
24.09.2013 22:00 11,8 C 82 % 1012,1 hPa 0,0 l/m 3,9 km/h O 8,8 C 11,8 C 2,2 km/h
24.09.2013 23:00 11,3 C 82 % 1012,0 hPa 0,0 l/m 0,0 km/h NO 8,3 C 11,3 C 0,0 km/h
25.09.2013 00:00 10,9 C 81 % 1011,9 hPa 0,0 l/m 0,0 km/h NO 7,8 C 10,9 C 0,0 km/h
25.09.2013 01:00 10,4 C 80 % 1011,8 hPa 0,0 l/m 0,0 km/h S-SO 7,1 C 10,4 C 0,0 km/h
25.09.2013 02:00 9,6 C 80 % 1011,9 hPa 0,0 l/m 0,0 km/h SO 6,3 C 9,6 C 0,0 km/h
25.09.2013 03:00 9,1 C 79 % 1011,5 hPa 0,0 l/m 0,0 km/h SO 5,7 C 9,1 C 0,0 km/h
25.09.2013 04:00 8,9 C 78 % 1010,9 hPa 0,0 l/m 0,0 km/h O-SO 5,3 C 8,9 C 0,0 km/h
25.09.2013 05:00 8,3 C 78 % 1010,9 hPa 0,0 l/m 0,0 km/h O 4,7 C 8,3 C 0,0 km/h
25.09.2013 06:00 8,4 C 76 % 1010,9 hPa 0,0 l/m 0,0 km/h O 4,4 C 8,4 C 0,0 km/h
25.09.2013 07:00 8,2 C 75 % 1010,9 hPa 0,0 l/m 0,0 km/h S-SO 4,0 C 8,2 C 0,0 km/h
25.09.2013 08:00 9,4 C 73 % 1010,5 hPa 0,0 l/m 0,0 km/h S-SO 4,8 C 9,4 C 0,0 km/h
25.09.2013 09:00 16,1 C 77 % 1010,9 hPa 0,0 l/m 0,0 km/h NW 12,1 C 16,1 C 0,0 km/h
25.09.2013 10:00 18,8 C 77 % 1010,8 hPa 0,0 l/m 0,0 km/h W-SW 14,7 C 18,8 C 0,0 km/h
25.09.2013 11:00 25,7 C 57 % 1010,6 hPa 0,0 l/m 0,0 km/h W-NW 16,5 C 25,7 C 0,0 km/h
25.09.2013 12:00 21,6 C 65 % 1010,6 hPa 0,0 l/m 6,5 km/h S-SW 14,7 C 21,6 C 3,6 km/h
25.09.2013 13:00 25,1 C 56 % 1010,1 hPa 0,0 l/m 11,7 km/h W 15,7 C 24,0 C 6,5 km/h
25.09.2013 14:00 25,6 C 55 % 1010,0 hPa 0,0 l/m 22,7 km/h W-NW 15,9 C 23,2 C 12,6 km/h
25.09.2013 15:00 25,9 C 54 % 1009,3 hPa 0,0 l/m 9,1 km/h NW 15,9 C 25,3 C 5,0 km/h
25.09.2013 16:00 25,9 C 53 % 1009,0 hPa 0,0 l/m 3,2 km/h W-SW 15,6 C 25,9 C 1,8 km/h
25.09.2013 17:00 25,3 C 52 % 1009,0 hPa 0,0 l/m 0,0 km/h W 14,7 C 25,3 C 0,0 km/h
25.09.2013 18:00 22,9 C 57 % 1008,9 hPa 0,0 l/m 1,9 km/h N-NO 13,9 C 22,9 C 1,1 km/h
25.09.2013 19:00 18,9 C 67 % 1009,5 hPa 0,0 l/m 0,0 km/h N-NO 12,6 C 18,9 C 0,0 km/h
25.09.2013 20:00 16,1 C 80 % 1010,0 hPa 0,0 l/m 3,9 km/h SO 12,6 C 16,1 C 2,2 km/h
25.09.2013 21:00 14,8 C 82 % 1010,5 hPa 0,0 l/m 0,0 km/h SO 11,8 C 14,8 C 0,0 km/h
25.09.2013 22:00 13,6 C 82 % 1010,8 hPa 0,0 l/m 0,0 km/h SO 10,6 C 13,6 C 0,0 km/h
25.09.2013 23:00 14,4 C 79 % 1011,2 hPa 0,0 l/m 5,2 km/h S-SO 10,8 C 14,4 C 2,9 km/h
26.09.2013 00:00 14,8 C 78 % 1010,5 hPa 0,0 l/m 0,0 km/h S-SO 11,0 C 14,8 C 0,0 km/h
26.09.2013 01:00 14,9 C 79 % 1010,9 hPa 0,0 l/m 0,0 km/h NO 11,3 C 14,9 C 0,0 km/h
26.09.2013 02:00 15,1 C 76 % 1010,7 hPa 0,0 l/m 0,0 km/h O 10,9 C 15,1 C 0,0 km/h
26.09.2013 03:00 15,1 C 74 % 1010,8 hPa 0,0 l/m 0,0 km/h SO 10,5 C 15,1 C 0,0 km/h
26.09.2013 04:00 14,8 C 74 % 1010,5 hPa 0,0 l/m 0,0 km/h SO 10,2 C 14,8 C 0,0 km/h
26.09.2013 05:00 14,9 C 71 % 1010,6 hPa 0,0 l/m 0,0 km/h SO 9,7 C 14,9 C 0,0 km/h
26.09.2013 06:00 14,8 C 70 % 1010,7 hPa 0,0 l/m 0,0 km/h SO 9,4 C 14,8 C 0,0 km/h
26.09.2013 07:00 14,6 C 69 % 1010,9 hPa 0,0 l/m 1,3 km/h SO 9,0 C 14,6 C 0,7 km/h
26.09.2013 08:00 15,4 C 66 % 1011,2 hPa 0,0 l/m 2,6 km/h SO 9,1 C 15,4 C 1,4 km/h
26.09.2013 09:00 16,0 C 68 % 1011,6 hPa 0,0 l/m 0,0 km/h SO 10,1 C 16,0 C 0,0 km/h
26.09.2013 10:00 18,4 C 68 % 1012,0 hPa 1,0 l/m 1,3 km/h SO 12,4 C 18,4 C 0,7 km/h
26.09.2013 11:00 21,3 C 82 % 1012,6 hPa 0,0 l/m 0,0 km/h S-SO 18,1 C 21,3 C 0,0 km/h
26.09.2013 12:00 26,1 C 67 % 1012,8 hPa 0,0 l/m 0,0 km/h SW 19,5 C 26,1 C 0,0 km/h
26.09.2013 13:00 25,6 C 64 % 1012,6 hPa 0,0 l/m 8,4 km/h SW 18,3 C 25,1 C 4,7 km/h
26.09.2013 14:00 26,9 C 60 % 1012,1 hPa 0,0 l/m 7,8 km/h NW 18,5 C 26,6 C 4,3 km/h
26.09.2013 15:00 28,6 C 50 % 1012,1 hPa 0,0 l/m 9,7 km/h W 17,1 C 28,2 C 5,4 km/h
26.09.2013 16:00 26,3 C 55 % 1011,8 hPa 0,0 l/m 0,0 km/h W 16,5 C 26,3 C 0,0 km/h
26.09.2013 17:00 24,5 C 60 % 1011,6 hPa 0,0 l/m 0,0 km/h O-NO 16,2 C 24,5 C 0,0 km/h
26.09.2013 18:00 23,4 C 67 % 1011,8 hPa 0,0 l/m 0,0 km/h NO 16,9 C 23,4 C 0,0 km/h
26.09.2013 19:00 18,8 C 77 % 1012,1 hPa 0,0 l/m 0,0 km/h SO 14,7 C 18,8 C 0,0 km/h
26.09.2013 20:00 16,6 C 81 % 1012,5 hPa 0,0 l/m 0,0 km/h NO 13,3 C 16,6 C 0,0 km/h
26.09.2013 21:00 16,4 C 82 % 1013,1 hPa 0,0 l/m 0,0 km/h NO 13,3 C 16,4 C 0,0 km/h
26.09.2013 22:00 15,6 C 82 % 1013,4 hPa 0,0 l/m 0,0 km/h SO 12,5 C 15,6 C 0,0 km/h
26.09.2013 23:00 15,5 C 81 % 1013,4 hPa 0,0 l/m 0,0 km/h SO 12,3 C 15,5 C 0,0 km/h
27.09.2013 00:00 13,1 C 81 % 1013,4 hPa 0,0 l/m 0,0 km/h NO 9,9 C 13,1 C 0,0 km/h
27.09.2013 01:00 12,6 C 80 % 1013,5 hPa 0,0 l/m 0,0 km/h NO 9,2 C 12,6 C 0,0 km/h
27.09.2013 02:00 13,8 C 77 % 1013,8 hPa 0,0 l/m 0,0 km/h NO 9,8 C 13,8 C 0,0 km/h
27.09.2013 03:00 13,9 C 74 % 1013,6 hPa 0,0 l/m 0,0 km/h W-NW 9,3 C 13,9 C 0,0 km/h
27.09.2013 04:00 13,9 C 73 % 1013,2 hPa 0,0 l/m 0,0 km/h W-NW 9,1 C 13,9 C 0,0 km/h
27.09.2013 05:00 13,9 C 72 % 1013,2 hPa 0,0 l/m 0,0 km/h W-NW 8,9 C 13,9 C 0,0 km/h
27.09.2013 06:00 13,6 C 72 % 1013,0 hPa 0,0 l/m 0,0 km/h NW 8,6 C 13,6 C 0,0 km/h
27.09.2013 07:00 13,5 C 71 % 1013,1 hPa 0,0 l/m 0,0 km/h NW 8,3 C 13,5 C 0,0 km/h
27.09.2013 08:00 13,9 C 71 % 1013,4 hPa 0,0 l/m 0,0 km/h W-NW 8,7 C 13,9 C 0,0 km/h
27.09.2013 09:00 14,4 C 77 % 1013,2 hPa 0,0 l/m 4,5 km/h N-NW 10,4 C 14,4 C 2,5 km/h
27.09.2013 10:00 16,4 C 83 % 1013,1 hPa 0,0 l/m 0,0 km/h N-NW 13,5 C 16,4 C 0,0 km/h
27.09.2013 11:00 17,6 C 82 % 1013,1 hPa 0,0 l/m 2,6 km/h NO 14,5 C 17,6 C 1,4 km/h
27.09.2013 12:00 18,6 C 79 % 1013,0 hPa 0,0 l/m 0,0 km/h W-SW 14,9 C 18,6 C 0,0 km/h
27.09.2013 13:00 20,9 C 74 % 1012,7 hPa 0,0 l/m 0,0 km/h N-NW 16,1 C 20,9 C 0,0 km/h
27.09.2013 14:00 23,4 C 67 % 1012,2 hPa 0,0 l/m 0,0 km/h W-NW 16,9 C 23,4 C 0,0 km/h
27.09.2013 15:00 26,6 C 60 % 1011,7 hPa 0,0 l/m 7,8 km/h W 18,2 C 26,3 C 4,3 km/h
27.09.2013 16:00 28,1 C 54 % 1011,2 hPa 0,0 l/m 1,3 km/h NW 17,9 C 28,1 C 0,7 km/h
27.09.2013 17:00 24,9 C 61 % 1011,2 hPa 0,0 l/m 11,0 km/h W-NW 16,8 C 23,9 C 6,1 km/h
27.09.2013 18:00 20,2 C 71 % 1011,1 hPa 0,0 l/m 0,0 km/h W-NW 14,8 C 20,2 C 0,0 km/h
27.09.2013 19:00 16,1 C 80 % 1011,1 hPa 0,0 l/m 0,0 km/h W-NW 12,6 C 16,1 C 0,0 km/h
27.09.2013 20:00 14,3 C 82 % 1011,3 hPa 0,0 l/m 0,0 km/h W-NW 11,3 C 14,3 C 0,0 km/h
27.09.2013 21:00 12,6 C 82 % 1011,4 hPa 0,0 l/m 0,0 km/h W-NW 9,6 C 12,6 C 0,0 km/h
27.09.2013 22:00 11,9 C 82 % 1011,3 hPa 0,0 l/m 0,0 km/h W-NW 8,9 C 11,9 C 0,0 km/h
27.09.2013 23:00 11,5 C 81 % 1011,2 hPa 0,0 l/m 0,0 km/h W-NW 8,4 C 11,5 C 0,0 km/h
28.09.2013 00:00 12,3 C 79 % 1011,0 hPa 0,0 l/m 0,0 km/h W-NW 8,8 C 12,3 C 0,0 km/h
28.09.2013 01:00 12,9 C 74 % 1010,8 hPa 0,0 l/m 0,0 km/h W-NW 8,4 C 12,9 C 0,0 km/h
28.09.2013 02:00 12,9 C 73 % 1010,9 hPa 0,0 l/m 0,0 km/h W-NW 8,2 C 12,9 C 0,0 km/h
28.09.2013 03:00 12,9 C 72 % 1010,5 hPa 0,0 l/m 0,0 km/h W-NW 8,0 C 12,9 C 0,0 km/h
28.09.2013 04:00 12,9 C 70 % 1010,1 hPa 0,0 l/m 0,0 km/h W-NW 7,6 C 12,9 C 0,0 km/h
28.09.2013 05:00 12,6 C 70 % 1009,7 hPa 0,0 l/m 0,0 km/h NW 7,3 C 12,6 C 0,0 km/h
28.09.2013 06:00 12,3 C 70 % 1009,6 hPa 0,0 l/m 0,0 km/h W-NW 7,0 C 12,3 C 0,0 km/h
28.09.2013 07:00 11,8 C 71 % 1009,3 hPa 0,0 l/m 0,0 km/h W-NW 6,7 C 11,8 C 0,0 km/h
28.09.2013 08:00 11,9 C 70 % 1009,2 hPa 0,0 l/m 0,0 km/h NW 6,6 C 11,9 C 0,0 km/h
28.09.2013 09:00 13,5 C 77 % 1008,9 hPa 0,0 l/m 1,9 km/h W-NW 9,5 C 13,5 C 1,1 km/h
28.09.2013 10:00 14,0 C 82 % 1009,4 hPa 0,0 l/m 1,9 km/h N 11,0 C 14,0 C 1,1 km/h
28.09.2013 11:00 16,9 C 81 % 1008,7 hPa 0,0 l/m 0,0 km/h N-NW 13,6 C 16,9 C 0,0 km/h
28.09.2013 12:00 17,8 C 78 % 1008,8 hPa 0,0 l/m 5,2 km/h N-NW 13,9 C 17,8 C 2,9 km/h
28.09.2013 13:00 17,9 C 76 % 1008,7 hPa 0,0 l/m 0,0 km/h W-NW 13,6 C 17,9 C 0,0 km/h
28.09.2013 14:00 18,8 C 75 % 1007,7 hPa 0,0 l/m 2,6 km/h NW 14,3 C 18,8 C 1,4 km/h
28.09.2013 15:00 23,8 C 63 % 1007,1 hPa 0,0 l/m 3,2 km/h W 16,3 C 23,8 C 1,8 km/h
28.09.2013 16:00 24,6 C 59 % 1006,8 hPa 0,0 l/m 0,0 km/h W 16,0 C 24,6 C 0,0 km/h
28.09.2013 17:00 23,2 C 63 % 1006,2 hPa 0,0 l/m 1,3 km/h N-NW 15,8 C 23,2 C 0,7 km/h
28.09.2013 18:00 17,8 C 76 % 1005,9 hPa 0,0 l/m 0,0 km/h W 13,5 C 17,8 C 0,0 km/h
28.09.2013 19:00 15,6 C 81 % 1006,0 hPa 0,0 l/m 0,0 km/h W 12,3 C 15,6 C 0,0 km/h
28.09.2013 20:00 14,1 C 82 % 1005,7 hPa 0,0 l/m 0,0 km/h N-NW 11,1 C 14,1 C 0,0 km/h
28.09.2013 21:00 13,8 C 81 % 1006,1 hPa 0,0 l/m 0,0 km/h N-NW 10,6 C 13,8 C 0,0 km/h
28.09.2013 22:00 13,9 C 80 % 1006,3 hPa 0,0 l/m 0,0 km/h N-NW 10,5 C 13,9 C 0,0 km/h
28.09.2013 23:00 13,9 C 79 % 1005,8 hPa 0,0 l/m 0,0 km/h W 10,3 C 13,9 C 0,0 km/h
29.09.2013 00:00 13,9 C 75 % 1005,8 hPa 0,0 l/m 0,0 km/h W 9,5 C 13,9 C 0,0 km/h
29.09.2013 01:00 14,1 C 73 % 1005,5 hPa 0,0 l/m 0,0 km/h W 9,3 C 14,1 C 0,0 km/h
29.09.2013 02:00 14,2 C 70 % 1005,8 hPa 0,0 l/m 0,0 km/h W 8,8 C 14,2 C 0,0 km/h
29.09.2013 03:00 13,9 C 68 % 1004,9 hPa 0,0 l/m 0,0 km/h W 8,1 C 13,9 C 0,0 km/h
29.09.2013 04:00 13,3 C 68 % 1004,6 hPa 0,0 l/m 0,0 km/h W 7,5 C 13,3 C 0,0 km/h
29.09.2013 05:00 13,5 C 64 % 1004,2 hPa 0,0 l/m 0,0 km/h W-NW 6,8 C 13,5 C 0,0 km/h
29.09.2013 06:00 13,5 C 62 % 1004,4 hPa 0,0 l/m 0,0 km/h W-NW 6,4 C 13,5 C 0,0 km/h
29.09.2013 07:00 13,3 C 60 % 1004,0 hPa 0,0 l/m 0,0 km/h NW 5,7 C 13,3 C 0,0 km/h
29.09.2013 08:00 13,2 C 59 % 1004,0 hPa 0,0 l/m 0,0 km/h W-NW 5,4 C 13,2 C 0,0 km/h
29.09.2013 09:00 13,5 C 59 % 1003,9 hPa 0,0 l/m 4,5 km/h N-NW 5,6 C 13,5 C 2,5 km/h
29.09.2013 10:00 14,3 C 71 % 1003,8 hPa 0,0 l/m 1,9 km/h N-NW 9,1 C 14,3 C 1,1 km/h
29.09.2013 11:00 16,3 C 83 % 1003,6 hPa 0,0 l/m 2,6 km/h NW 13,4 C 16,3 C 1,4 km/h
29.09.2013 12:00 16,5 C 81 % 1003,0 hPa 0,0 l/m 1,9 km/h NW 13,2 C 16,5 C 1,1 km/h
29.09.2013 13:00 18,9 C 77 % 1003,0 hPa 0,0 l/m 0,0 km/h S 14,8 C 18,9 C 0,0 km/h
29.09.2013 14:00 20,4 C 71 % 1002,6 hPa 0,0 l/m 16,8 km/h S-SW 15,0 C 17,3 C 9,4 km/h
29.09.2013 15:00 21,6 C 69 % 1002,3 hPa 0,0 l/m 0,0 km/h NW 15,7 C 21,6 C 0,0 km/h
29.09.2013 16:00 21,1 C 67 % 1002,1 hPa 0,0 l/m 4,5 km/h W-NW 14,7 C 21,1 C 2,5 km/h
29.09.2013 17:00 17,9 C 73 % 1002,1 hPa 0,0 l/m 4,5 km/h S-SW 13,0 C 17,9 C 2,5 km/h
29.09.2013 18:00 16,2 C 78 % 1002,7 hPa 0,0 l/m 3,2 km/h S 12,4 C 16,2 C 1,8 km/h
29.09.2013 19:00 15,3 C 80 % 1003,2 hPa 0,0 l/m 0,0 km/h S 11,9 C 15,3 C 0,0 km/h
29.09.2013 20:00 14,9 C 82 % 1003,1 hPa 0,0 l/m 0,0 km/h S-SW 11,9 C 14,9 C 0,0 km/h
29.09.2013 21:00 14,6 C 83 % 1003,7 hPa 0,0 l/m 0,0 km/h SO 11,7 C 14,6 C 0,0 km/h
29.09.2013 22:00 14,3 C 83 % 1004,2 hPa 0,0 l/m 0,0 km/h W 11,5 C 14,3 C 0,0 km/h
29.09.2013 23:00 14,1 C 83 % 1004,3 hPa 0,0 l/m 0,0 km/h NW 11,3 C 14,1 C 0,0 km/h
Min-Datum _ 24.09.13 24.09.13 29.09.13 - 23.09.13 - 24.09.13 24.09.13 23.09.13
_ Min-Zeit 07:19 17:19 16:19 - 01:19 - 07:19 07:19 01:19
Minimum _ 6,4 C 40 % 1002,1 hPa - 0,0 km/h - 2,7 C 6,4 C 0,0 km/h
Max-Datum _ 24.09.13 27.09.13 23.09.13 26.09.13 25.09.13 - 26.09.13 24.09.13 25.09.13
_ Max-Zeit 17:19 10:19 00:19 10:19 14:19 - 12:19 17:19 14:19
Maximum _ 31,1 C 83 % 1024,8 hPa 1,0 l/m 22,7 km/h
W-NW
- 19,5 C 31,1 C 12,6 km/h
W-NW
Durchschnitt _ 16,3 C 71 % 1011,9 hPa #1,0 l/m 1,2 km/h W-NW 10,9 C 16,3 C 0,7 km/h
www.sexauwetter.de